sensor_id;sensor_type;location;lat;lon;timestamp;P1;durP1;ratioP1;P2;durP2;ratioP2
57846;SDS011;43675;50.030;21.952;2023-06-22T00:00:04;29.40;;;26.60;;
57846;SDS011;43675;50.030;21.952;2023-06-22T00:02:52;28.30;;;25.80;;
57846;SDS011;43675;50.030;21.952;2023-06-22T00:05:18;27.90;;;25.50;;
57846;SDS011;43675;50.030;21.952;2023-06-22T00:07:45;28.60;;;25.90;;
57846;SDS011;43675;50.030;21.952;2023-06-22T00:10:11;28.70;;;25.90;;
57846;SDS011;43675;50.030;21.952;2023-06-22T00:12:38;28.80;;;26.00;;
57846;SDS011;43675;50.030;21.952;2023-06-22T00:15:05;28.80;;;26.20;;
57846;SDS011;43675;50.030;21.952;2023-06-22T00:17:31;29.80;;;27.00;;
57846;SDS011;43675;50.030;21.952;2023-06-22T00:19:58;29.00;;;26.20;;
57846;SDS011;43675;50.030;21.952;2023-06-22T00:22:24;29.20;;;26.60;;
57846;SDS011;43675;50.030;21.952;2023-06-22T00:24:51;30.10;;;27.20;;
57846;SDS011;43675;50.030;21.952;2023-06-22T00:27:17;29.90;;;27.10;;
57846;SDS011;43675;50.030;21.952;2023-06-22T00:29:44;29.40;;;26.80;;
57846;SDS011;43675;50.030;21.952;2023-06-22T00:32:10;29.10;;;26.50;;
57846;SDS011;43675;50.030;21.952;2023-06-22T00:34:37;29.00;;;26.30;;
57846;SDS011;43675;50.030;21.952;2023-06-22T00:37:03;29.60;;;26.90;;
57846;SDS011;43675;50.030;21.952;2023-06-22T00:39:30;29.80;;;26.80;;
57846;SDS011;43675;50.030;21.952;2023-06-22T00:41:56;29.80;;;26.90;;
57846;SDS011;43675;50.030;21.952;2023-06-22T00:44:23;29.90;;;27.20;;
57846;SDS011;43675;50.030;21.952;2023-06-22T00:46:49;29.90;;;27.00;;
57846;SDS011;43675;50.030;21.952;2023-06-22T00:49:16;29.30;;;26.70;;
57846;SDS011;43675;50.030;21.952;2023-06-22T00:51:43;30.10;;;27.30;;
57846;SDS011;43675;50.030;21.952;2023-06-22T00:54:09;29.20;;;26.60;;
57846;SDS011;43675;50.030;21.952;2023-06-22T00:56:36;29.00;;;26.20;;
57846;SDS011;43675;50.030;21.952;2023-06-22T00:59:03;29.00;;;26.40;;
57846;SDS011;43675;50.030;21.952;2023-06-22T01:01:30;28.20;;;25.60;;
57846;SDS011;43675;50.030;21.952;2023-06-22T01:03:56;27.90;;;25.30;;
57846;SDS011;43675;50.030;21.952;2023-06-22T01:06:27;30.00;;;27.40;;
57846;SDS011;43675;50.030;21.952;2023-06-22T01:09:20;29.60;;;26.70;;
57846;SDS011;43675;50.030;21.952;2023-06-22T01:11:54;28.70;;;26.10;;
57846;SDS011;43675;50.030;21.952;2023-06-22T01:14:40;29.50;;;26.80;;
57846;SDS011;43675;50.030;21.952;2023-06-22T01:17:09;29.20;;;26.60;;
57846;SDS011;43675;50.030;21.952;2023-06-22T01:19:41;28.90;;;26.20;;
57846;SDS011;43675;50.030;21.952;2023-06-22T01:22:11;28.80;;;26.10;;
57846;SDS011;43675;50.030;21.952;2023-06-22T01:30:31;28.60;;;26.10;;
57846;SDS011;43675;50.030;21.952;2023-06-22T01:32:58;29.60;;;26.70;;
57846;SDS011;43675;50.030;21.952;2023-06-22T01:35:27;29.50;;;26.90;;
57846;SDS011;43675;50.030;21.952;2023-06-22T01:37:55;29.60;;;26.70;;
57846;SDS011;43675;50.030;21.952;2023-06-22T01:40:22;30.00;;;27.20;;
57846;SDS011;43675;50.030;21.952;2023-06-22T01:42:50;30.40;;;27.50;;
57846;SDS011;43675;50.030;21.952;2023-06-22T01:45:17;30.40;;;27.50;;
57846;SDS011;43675;50.030;21.952;2023-06-22T01:47:44;29.10;;;26.60;;
57846;SDS011;43675;50.030;21.952;2023-06-22T01:50:12;31.10;;;28.30;;
57846;SDS011;43675;50.030;21.952;2023-06-22T01:52:38;32.10;;;29.00;;
57846;SDS011;43675;50.030;21.952;2023-06-22T01:55:05;30.40;;;27.60;;
57846;SDS011;43675;50.030;21.952;2023-06-22T01:57:32;31.10;;;28.30;;
57846;SDS011;43675;50.030;21.952;2023-06-22T02:00:07;30.40;;;27.70;;
57846;SDS011;43675;50.030;21.952;2023-06-22T02:03:21;30.80;;;28.20;;
57846;SDS011;43675;50.030;21.952;2023-06-22T02:05:33;30.60;;;27.90;;
57846;SDS011;43675;50.030;21.952;2023-06-22T02:08:11;30.80;;;28.10;;
57846;SDS011;43675;50.030;21.952;2023-06-22T02:10:44;30.40;;;27.40;;
57846;SDS011;43675;50.030;21.952;2023-06-22T02:13:12;31.00;;;28.10;;
57846;SDS011;43675;50.030;21.952;2023-06-22T02:15:40;30.20;;;27.40;;
57846;SDS011;43675;50.030;21.952;2023-06-22T02:18:07;29.30;;;26.60;;
57846;SDS011;43675;50.030;21.952;2023-06-22T02:20:36;29.80;;;26.80;;
57846;SDS011;43675;50.030;21.952;2023-06-22T02:23:03;29.40;;;26.70;;
57846;SDS011;43675;50.030;21.952;2023-06-22T02:25:32;28.30;;;25.80;;
57846;SDS011;43675;50.030;21.952;2023-06-22T02:27:59;29.20;;;26.60;;
57846;SDS011;43675;50.030;21.952;2023-06-22T02:30:26;28.10;;;25.40;;
57846;SDS011;43675;50.030;21.952;2023-06-22T02:32:52;28.20;;;25.80;;
57846;SDS011;43675;50.030;21.952;2023-06-22T02:35:19;27.10;;;24.80;;
57846;SDS011;43675;50.030;21.952;2023-06-22T02:37:45;28.40;;;25.90;;
57846;SDS011;43675;50.030;21.952;2023-06-22T02:40:12;28.80;;;25.90;;
57846;SDS011;43675;50.030;21.952;2023-06-22T02:42:39;28.10;;;25.60;;
57846;SDS011;43675;50.030;21.952;2023-06-22T02:45:06;28.50;;;25.80;;
57846;SDS011;43675;50.030;21.952;2023-06-22T02:47:33;26.70;;;24.40;;
57846;SDS011;43675;50.030;21.952;2023-06-22T02:49:59;28.40;;;25.80;;
57846;SDS011;43675;50.030;21.952;2023-06-22T02:52:26;27.50;;;25.10;;
57846;SDS011;43675;50.030;21.952;2023-06-22T02:54:52;30.10;;;25.30;;
57846;SDS011;43675;50.030;21.952;2023-06-22T02:57:19;28.60;;;25.80;;
57846;SDS011;43675;50.030;21.952;2023-06-22T02:59:45;27.80;;;25.30;;
57846;SDS011;43675;50.030;21.952;2023-06-22T03:02:12;27.90;;;25.30;;
57846;SDS011;43675;50.030;21.952;2023-06-22T03:04:38;28.50;;;25.90;;
57846;SDS011;43675;50.030;21.952;2023-06-22T03:07:05;28.40;;;26.00;;
57846;SDS011;43675;50.030;21.952;2023-06-22T03:09:31;27.90;;;25.40;;
57846;SDS011;43675;50.030;21.952;2023-06-22T03:11:58;27.90;;;25.30;;
57846;SDS011;43675;50.030;21.952;2023-06-22T03:14:24;28.40;;;25.70;;
57846;SDS011;43675;50.030;21.952;2023-06-22T03:16:51;27.50;;;25.00;;
57846;SDS011;43675;50.030;21.952;2023-06-22T03:19:17;28.20;;;25.40;;
57846;SDS011;43675;50.030;21.952;2023-06-22T03:21:44;27.40;;;24.90;;
57846;SDS011;43675;50.030;21.952;2023-06-22T03:24:11;28.20;;;25.50;;
57846;SDS011;43675;50.030;21.952;2023-06-22T03:26:37;27.30;;;24.70;;
57846;SDS011;43675;50.030;21.952;2023-06-22T03:29:03;27.80;;;25.20;;
57846;SDS011;43675;50.030;21.952;2023-06-22T03:31:30;27.80;;;25.20;;
57846;SDS011;43675;50.030;21.952;2023-06-22T03:33:56;29.30;;;26.40;;
57846;SDS011;43675;50.030;21.952;2023-06-22T03:36:23;30.40;;;27.50;;
57846;SDS011;43675;50.030;21.952;2023-06-22T03:38:50;30.50;;;27.30;;
57846;SDS011;43675;50.030;21.952;2023-06-22T03:41:16;29.80;;;26.90;;
57846;SDS011;43675;50.030;21.952;2023-06-22T03:43:43;28.50;;;25.80;;
57846;SDS011;43675;50.030;21.952;2023-06-22T03:46:09;30.00;;;27.00;;
57846;SDS011;43675;50.030;21.952;2023-06-22T03:48:36;29.40;;;26.50;;
57846;SDS011;43675;50.030;21.952;2023-06-22T03:51:02;30.70;;;27.70;;
57846;SDS011;43675;50.030;21.952;2023-06-22T03:53:29;31.70;;;28.70;;
57846;SDS011;43675;50.030;21.952;2023-06-22T03:55:56;30.90;;;28.00;;
57846;SDS011;43675;50.030;21.952;2023-06-22T03:58:23;32.10;;;29.00;;
57846;SDS011;43675;50.030;21.952;2023-06-22T04:00:50;32.70;;;29.50;;
57846;SDS011;43675;50.030;21.952;2023-06-22T04:03:17;32.10;;;28.80;;
57846;SDS011;43675;50.030;21.952;2023-06-22T04:05:45;32.20;;;29.20;;
57846;SDS011;43675;50.030;21.952;2023-06-22T04:08:12;31.00;;;27.80;;
57846;SDS011;43675;50.030;21.952;2023-06-22T04:10:39;29.80;;;26.90;;
57846;SDS011;43675;50.030;21.952;2023-06-22T04:13:06;28.60;;;25.80;;
57846;SDS011;43675;50.030;21.952;2023-06-22T04:15:33;29.20;;;26.40;;
57846;SDS011;43675;50.030;21.952;2023-06-22T04:17:59;29.40;;;25.10;;
57846;SDS011;43675;50.030;21.952;2023-06-22T04:20:26;27.40;;;24.80;;
57846;SDS011;43675;50.030;21.952;2023-06-22T04:22:55;29.40;;;25.40;;
57846;SDS011;43675;50.030;21.952;2023-06-22T04:25:21;28.10;;;25.50;;
57846;SDS011;43675;50.030;21.952;2023-06-22T04:27:48;27.20;;;24.40;;
57846;SDS011;43675;50.030;21.952;2023-06-22T04:30:15;27.00;;;24.40;;
57846;SDS011;43675;50.030;21.952;2023-06-22T04:32:42;27.30;;;24.80;;
57846;SDS011;43675;50.030;21.952;2023-06-22T04:35:09;26.40;;;23.80;;
57846;SDS011;43675;50.030;21.952;2023-06-22T04:37:36;26.90;;;24.30;;
57846;SDS011;43675;50.030;21.952;2023-06-22T04:40:03;27.30;;;24.70;;
57846;SDS011;43675;50.030;21.952;2023-06-22T04:42:30;26.70;;;24.30;;
57846;SDS011;43675;50.030;21.952;2023-06-22T04:44:56;26.30;;;23.80;;
57846;SDS011;43675;50.030;21.952;2023-06-22T04:47:23;25.90;;;23.40;;
57846;SDS011;43675;50.030;21.952;2023-06-22T04:49:49;26.40;;;23.80;;
57846;SDS011;43675;50.030;21.952;2023-06-22T04:52:16;26.60;;;24.20;;
57846;SDS011;43675;50.030;21.952;2023-06-22T04:54:42;26.30;;;24.00;;
57846;SDS011;43675;50.030;21.952;2023-06-22T04:57:09;28.40;;;25.80;;
57846;SDS011;43675;50.030;21.952;2023-06-22T04:59:36;28.60;;;25.90;;
57846;SDS011;43675;50.030;21.952;2023-06-22T05:02:03;29.00;;;26.20;;
57846;SDS011;43675;50.030;21.952;2023-06-22T05:04:30;29.80;;;26.80;;
57846;SDS011;43675;50.030;21.952;2023-06-22T05:06:57;29.90;;;27.00;;
57846;SDS011;43675;50.030;21.952;2023-06-22T05:09:24;29.40;;;26.70;;
57846;SDS011;43675;50.030;21.952;2023-06-22T05:11:51;29.50;;;26.80;;
57846;SDS011;43675;50.030;21.952;2023-06-22T05:14:18;29.80;;;27.00;;
57846;SDS011;43675;50.030;21.952;2023-06-22T05:16:45;29.40;;;26.60;;
57846;SDS011;43675;50.030;21.952;2023-06-22T05:19:12;30.40;;;27.50;;
57846;SDS011;43675;50.030;21.952;2023-06-22T05:21:39;29.20;;;26.40;;
57846;SDS011;43675;50.030;21.952;2023-06-22T05:24:05;30.10;;;26.90;;
57846;SDS011;43675;50.030;21.952;2023-06-22T05:26:32;29.30;;;26.60;;
57846;SDS011;43675;50.030;21.952;2023-06-22T05:29:00;29.60;;;26.90;;
57846;SDS011;43675;50.030;21.952;2023-06-22T05:31:28;30.00;;;27.00;;
57846;SDS011;43675;50.030;21.952;2023-06-22T05:33:55;28.00;;;25.40;;
57846;SDS011;43675;50.030;21.952;2023-06-22T05:36:22;29.50;;;26.50;;
57846;SDS011;43675;50.030;21.952;2023-06-22T05:38:49;28.30;;;25.50;;
57846;SDS011;43675;50.030;21.952;2023-06-22T05:41:15;28.50;;;25.90;;
57846;SDS011;43675;50.030;21.952;2023-06-22T05:43:42;28.90;;;26.00;;
57846;SDS011;43675;50.030;21.952;2023-06-22T05:46:08;29.60;;;26.60;;
57846;SDS011;43675;50.030;21.952;2023-06-22T05:48:35;29.00;;;26.10;;
57846;SDS011;43675;50.030;21.952;2023-06-22T05:51:01;29.90;;;26.90;;
57846;SDS011;43675;50.030;21.952;2023-06-22T05:53:28;29.80;;;26.70;;
57846;SDS011;43675;50.030;21.952;2023-06-22T05:55:55;28.90;;;26.20;;
57846;SDS011;43675;50.030;21.952;2023-06-22T05:58:21;30.30;;;27.00;;
57846;SDS011;43675;50.030;21.952;2023-06-22T06:00:48;28.70;;;26.00;;
57846;SDS011;43675;50.030;21.952;2023-06-22T06:03:15;28.50;;;25.70;;
57846;SDS011;43675;50.030;21.952;2023-06-22T06:05:41;29.00;;;26.10;;
57846;SDS011;43675;50.030;21.952;2023-06-22T06:08:08;29.10;;;26.50;;
57846;SDS011;43675;50.030;21.952;2023-06-22T06:10:34;29.70;;;26.80;;
57846;SDS011;43675;50.030;21.952;2023-06-22T06:13:01;28.50;;;25.80;;
57846;SDS011;43675;50.030;21.952;2023-06-22T06:15:28;29.00;;;26.30;;
57846;SDS011;43675;50.030;21.952;2023-06-22T06:17:55;28.70;;;26.10;;
57846;SDS011;43675;50.030;21.952;2023-06-22T06:20:22;28.40;;;25.90;;
57846;SDS011;43675;50.030;21.952;2023-06-22T06:22:49;28.30;;;25.70;;
57846;SDS011;43675;50.030;21.952;2023-06-22T06:25:16;29.50;;;26.70;;
57846;SDS011;43675;50.030;21.952;2023-06-22T06:27:45;29.30;;;26.50;;
57846;SDS011;43675;50.030;21.952;2023-06-22T06:30:13;29.20;;;26.40;;
57846;SDS011;43675;50.030;21.952;2023-06-22T06:32:42;28.60;;;25.90;;
57846;SDS011;43675;50.030;21.952;2023-06-22T06:35:09;28.10;;;25.50;;
57846;SDS011;43675;50.030;21.952;2023-06-22T06:37:36;29.10;;;26.30;;
57846;SDS011;43675;50.030;21.952;2023-06-22T06:40:05;29.30;;;26.30;;
57846;SDS011;43675;50.030;21.952;2023-06-22T06:42:32;27.90;;;25.40;;
57846;SDS011;43675;50.030;21.952;2023-06-22T06:44:59;29.70;;;26.80;;
57846;SDS011;43675;50.030;21.952;2023-06-22T06:47:25;28.00;;;25.20;;
57846;SDS011;43675;50.030;21.952;2023-06-22T06:49:52;29.00;;;26.30;;
57846;SDS011;43675;50.030;21.952;2023-06-22T06:52:18;27.90;;;25.40;;
57846;SDS011;43675;50.030;21.952;2023-06-22T06:54:45;27.50;;;25.00;;
57846;SDS011;43675;50.030;21.952;2023-06-22T06:57:11;28.10;;;25.60;;
57846;SDS011;43675;50.030;21.952;2023-06-22T06:59:38;28.40;;;25.80;;
57846;SDS011;43675;50.030;21.952;2023-06-22T07:02:04;28.50;;;26.10;;
57846;SDS011;43675;50.030;21.952;2023-06-22T07:04:31;27.80;;;25.20;;
57846;SDS011;43675;50.030;21.952;2023-06-22T07:06:58;27.60;;;25.00;;
57846;SDS011;43675;50.030;21.952;2023-06-22T07:09:27;28.50;;;26.00;;
57846;SDS011;43675;50.030;21.952;2023-06-22T07:11:54;27.60;;;25.00;;
57846;SDS011;43675;50.030;21.952;2023-06-22T07:14:20;28.10;;;25.60;;
57846;SDS011;43675;50.030;21.952;2023-06-22T07:16:47;26.50;;;24.10;;
57846;SDS011;43675;50.030;21.952;2023-06-22T07:19:13;26.20;;;24.00;;
57846;SDS011;43675;50.030;21.952;2023-06-22T07:21:40;26.00;;;23.90;;
57846;SDS011;43675;50.030;21.952;2023-06-22T07:24:06;26.70;;;24.00;;
57846;SDS011;43675;50.030;21.952;2023-06-22T07:26:33;23.90;;;22.00;;
57846;SDS011;43675;50.030;21.952;2023-06-22T07:29:00;25.40;;;23.30;;
57846;SDS011;43675;50.030;21.952;2023-06-22T07:31:27;25.90;;;23.80;;
57846;SDS011;43675;50.030;21.952;2023-06-22T07:33:53;24.70;;;22.60;;
57846;SDS011;43675;50.030;21.952;2023-06-22T07:36:20;24.70;;;22.60;;
57846;SDS011;43675;50.030;21.952;2023-06-22T07:38:46;25.10;;;23.00;;
57846;SDS011;43675;50.030;21.952;2023-06-22T07:41:13;27.40;;;25.20;;
57846;SDS011;43675;50.030;21.952;2023-06-22T07:43:39;27.20;;;24.70;;
57846;SDS011;43675;50.030;21.952;2023-06-22T07:46:05;27.30;;;24.90;;
57846;SDS011;43675;50.030;21.952;2023-06-22T07:48:32;25.80;;;23.60;;
57846;SDS011;43675;50.030;21.952;2023-06-22T07:50:58;27.40;;;25.20;;
57846;SDS011;43675;50.030;21.952;2023-06-22T07:53:25;26.60;;;24.30;;
57846;SDS011;43675;50.030;21.952;2023-06-22T07:55:51;28.10;;;25.60;;
57846;SDS011;43675;50.030;21.952;2023-06-22T07:58:18;26.90;;;24.40;;
57846;SDS011;43675;50.030;21.952;2023-06-22T08:00:44;26.20;;;24.00;;
57846;SDS011;43675;50.030;21.952;2023-06-22T08:03:11;25.10;;;23.00;;
57846;SDS011;43675;50.030;21.952;2023-06-22T08:05:37;25.40;;;23.20;;
57846;SDS011;43675;50.030;21.952;2023-06-22T08:08:04;25.70;;;23.20;;
57846;SDS011;43675;50.030;21.952;2023-06-22T08:10:30;25.20;;;22.90;;
57846;SDS011;43675;50.030;21.952;2023-06-22T08:12:57;25.70;;;23.50;;
57846;SDS011;43675;50.030;21.952;2023-06-22T08:15:26;26.50;;;24.20;;
57846;SDS011;43675;50.030;21.952;2023-06-22T08:17:52;25.00;;;22.90;;
57846;SDS011;43675;50.030;21.952;2023-06-22T08:20:19;26.00;;;23.60;;
57846;SDS011;43675;50.030;21.952;2023-06-22T08:22:45;25.50;;;23.30;;
57846;SDS011;43675;50.030;21.952;2023-06-22T08:25:12;24.80;;;22.80;;
57846;SDS011;43675;50.030;21.952;2023-06-22T08:27:39;25.20;;;23.00;;
57846;SDS011;43675;50.030;21.952;2023-06-22T08:30:06;24.60;;;22.60;;
57846;SDS011;43675;50.030;21.952;2023-06-22T08:32:33;24.40;;;22.30;;
57846;SDS011;43675;50.030;21.952;2023-06-22T08:34:59;24.80;;;22.80;;
57846;SDS011;43675;50.030;21.952;2023-06-22T08:37:26;27.10;;;24.70;;
57846;SDS011;43675;50.030;21.952;2023-06-22T08:39:53;25.30;;;23.20;;
57846;SDS011;43675;50.030;21.952;2023-06-22T08:42:20;25.40;;;23.20;;
57846;SDS011;43675;50.030;21.952;2023-06-22T08:44:46;26.20;;;24.10;;
57846;SDS011;43675;50.030;21.952;2023-06-22T08:47:13;25.10;;;23.10;;
57846;SDS011;43675;50.030;21.952;2023-06-22T08:49:39;25.20;;;23.20;;
57846;SDS011;43675;50.030;21.952;2023-06-22T08:52:06;26.30;;;24.10;;
57846;SDS011;43675;50.030;21.952;2023-06-22T08:54:33;25.40;;;23.40;;
57846;SDS011;43675;50.030;21.952;2023-06-22T08:57:03;24.40;;;22.40;;
57846;SDS011;43675;50.030;21.952;2023-06-22T08:59:29;24.40;;;22.20;;
57846;SDS011;43675;50.030;21.952;2023-06-22T09:01:56;25.70;;;23.60;;
57846;SDS011;43675;50.030;21.952;2023-06-22T09:04:22;26.10;;;24.00;;
57846;SDS011;43675;50.030;21.952;2023-06-22T09:06:49;26.60;;;24.40;;
57846;SDS011;43675;50.030;21.952;2023-06-22T09:09:16;25.70;;;23.40;;
57846;SDS011;43675;50.030;21.952;2023-06-22T09:11:42;25.60;;;23.60;;
57846;SDS011;43675;50.030;21.952;2023-06-22T09:14:09;25.30;;;23.10;;
57846;SDS011;43675;50.030;21.952;2023-06-22T09:16:36;25.40;;;23.10;;
57846;SDS011;43675;50.030;21.952;2023-06-22T09:19:03;25.10;;;22.80;;
57846;SDS011;43675;50.030;21.952;2023-06-22T09:21:30;25.30;;;23.30;;
57846;SDS011;43675;50.030;21.952;2023-06-22T09:23:56;25.40;;;23.20;;
57846;SDS011;43675;50.030;21.952;2023-06-22T09:26:23;25.10;;;23.10;;
57846;SDS011;43675;50.030;21.952;2023-06-22T09:28:49;25.70;;;23.40;;
57846;SDS011;43675;50.030;21.952;2023-06-22T09:31:16;26.30;;;23.90;;
57846;SDS011;43675;50.030;21.952;2023-06-22T09:33:43;24.30;;;22.30;;
57846;SDS011;43675;50.030;21.952;2023-06-22T09:36:09;25.00;;;23.10;;
57846;SDS011;43675;50.030;21.952;2023-06-22T09:38:36;25.50;;;23.40;;
57846;SDS011;43675;50.030;21.952;2023-06-22T09:41:04;27.10;;;24.40;;
57846;SDS011;43675;50.030;21.952;2023-06-22T09:43:31;23.70;;;21.80;;
57846;SDS011;43675;50.030;21.952;2023-06-22T09:45:58;25.20;;;23.10;;
57846;SDS011;43675;50.030;21.952;2023-06-22T09:48:25;24.30;;;22.30;;
57846;SDS011;43675;50.030;21.952;2023-06-22T09:50:51;24.60;;;22.60;;
57846;SDS011;43675;50.030;21.952;2023-06-22T09:53:18;25.80;;;23.60;;
57846;SDS011;43675;50.030;21.952;2023-06-22T09:55:44;25.50;;;23.50;;
57846;SDS011;43675;50.030;21.952;2023-06-22T09:58:11;25.20;;;23.10;;
57846;SDS011;43675;50.030;21.952;2023-06-22T10:00:37;25.50;;;23.40;;
57846;SDS011;43675;50.030;21.952;2023-06-22T10:03:04;25.50;;;23.50;;
57846;SDS011;43675;50.030;21.952;2023-06-22T10:05:30;24.90;;;22.80;;
57846;SDS011;43675;50.030;21.952;2023-06-22T10:07:57;24.10;;;22.20;;
57846;SDS011;43675;50.030;21.952;2023-06-22T10:10:23;24.40;;;22.20;;
57846;SDS011;43675;50.030;21.952;2023-06-22T10:12:57;25.90;;;23.60;;
57846;SDS011;43675;50.030;21.952;2023-06-22T10:15:28;25.30;;;23.30;;
57846;SDS011;43675;50.030;21.952;2023-06-22T10:17:55;25.10;;;23.00;;
57846;SDS011;43675;50.030;21.952;2023-06-22T10:20:22;24.90;;;22.70;;
57846;SDS011;43675;50.030;21.952;2023-06-22T10:22:48;25.20;;;23.00;;
57846;SDS011;43675;50.030;21.952;2023-06-22T10:25:15;25.40;;;23.10;;
57846;SDS011;43675;50.030;21.952;2023-06-22T10:27:41;26.20;;;23.80;;
57846;SDS011;43675;50.030;21.952;2023-06-22T10:30:08;25.90;;;23.80;;
57846;SDS011;43675;50.030;21.952;2023-06-22T10:32:37;25.70;;;23.60;;
57846;SDS011;43675;50.030;21.952;2023-06-22T10:35:04;25.20;;;23.20;;
57846;SDS011;43675;50.030;21.952;2023-06-22T10:37:31;25.00;;;22.80;;
57846;SDS011;43675;50.030;21.952;2023-06-22T10:39:58;26.70;;;24.40;;
57846;SDS011;43675;50.030;21.952;2023-06-22T10:42:24;27.50;;;25.30;;
57846;SDS011;43675;50.030;21.952;2023-06-22T10:44:51;26.10;;;24.00;;
57846;SDS011;43675;50.030;21.952;2023-06-22T10:47:17;25.80;;;23.60;;
57846;SDS011;43675;50.030;21.952;2023-06-22T10:49:44;27.10;;;24.90;;
57846;SDS011;43675;50.030;21.952;2023-06-22T10:52:10;27.10;;;24.60;;
57846;SDS011;43675;50.030;21.952;2023-06-22T10:54:37;25.60;;;23.50;;
57846;SDS011;43675;50.030;21.952;2023-06-22T10:57:04;25.00;;;23.00;;
57846;SDS011;43675;50.030;21.952;2023-06-22T10:59:30;26.40;;;24.10;;
57846;SDS011;43675;50.030;21.952;2023-06-22T11:01:57;26.00;;;23.80;;
57846;SDS011;43675;50.030;21.952;2023-06-22T11:04:24;27.00;;;24.80;;
57846;SDS011;43675;50.030;21.952;2023-06-22T11:06:51;26.00;;;23.80;;
57846;SDS011;43675;50.030;21.952;2023-06-22T11:09:17;26.30;;;24.20;;
57846;SDS011;43675;50.030;21.952;2023-06-22T11:11:44;24.00;;;21.80;;
57846;SDS011;43675;50.030;21.952;2023-06-22T11:14:11;25.40;;;23.20;;
57846;SDS011;43675;50.030;21.952;2023-06-22T11:16:37;25.80;;;23.70;;
57846;SDS011;43675;50.030;21.952;2023-06-22T11:19:04;24.50;;;22.50;;
57846;SDS011;43675;50.030;21.952;2023-06-22T11:21:32;24.20;;;22.10;;
57846;SDS011;43675;50.030;21.952;2023-06-22T11:23:59;25.70;;;23.50;;
57846;SDS011;43675;50.030;21.952;2023-06-22T11:26:27;24.90;;;22.80;;
57846;SDS011;43675;50.030;21.952;2023-06-22T11:28:53;25.80;;;23.70;;
57846;SDS011;43675;50.030;21.952;2023-06-22T11:31:20;25.20;;;23.20;;
57846;SDS011;43675;50.030;21.952;2023-06-22T11:33:46;24.50;;;22.40;;
57846;SDS011;43675;50.030;21.952;2023-06-22T11:36:13;25.90;;;23.30;;
57846;SDS011;43675;50.030;21.952;2023-06-22T11:38:41;25.20;;;23.10;;
57846;SDS011;43675;50.030;21.952;2023-06-22T11:41:08;23.30;;;21.50;;
57846;SDS011;43675;50.030;21.952;2023-06-22T11:43:36;22.80;;;20.90;;
57846;SDS011;43675;50.030;21.952;2023-06-22T11:46:03;22.20;;;20.30;;
57846;SDS011;43675;50.030;21.952;2023-06-22T11:48:30;22.30;;;20.60;;
57846;SDS011;43675;50.030;21.952;2023-06-22T11:50:57;23.10;;;21.40;;
57846;SDS011;43675;50.030;21.952;2023-06-22T11:53:24;22.90;;;21.20;;
57846;SDS011;43675;50.030;21.952;2023-06-22T11:55:52;24.60;;;22.60;;
57846;SDS011;43675;50.030;21.952;2023-06-22T11:58:18;24.20;;;22.30;;
57846;SDS011;43675;50.030;21.952;2023-06-22T12:00:45;25.10;;;22.90;;
57846;SDS011;43675;50.030;21.952;2023-06-22T12:03:12;23.20;;;21.30;;
57846;SDS011;43675;50.030;21.952;2023-06-22T12:05:38;24.10;;;22.10;;
57846;SDS011;43675;50.030;21.952;2023-06-22T12:08:05;21.90;;;20.20;;
57846;SDS011;43675;50.030;21.952;2023-06-22T12:10:31;23.50;;;21.50;;
57846;SDS011;43675;50.030;21.952;2023-06-22T12:12:58;24.20;;;22.20;;
57846;SDS011;43675;50.030;21.952;2023-06-22T12:15:24;23.40;;;21.50;;
57846;SDS011;43675;50.030;21.952;2023-06-22T12:17:51;23.20;;;21.10;;
57846;SDS011;43675;50.030;21.952;2023-06-22T12:20:18;25.50;;;23.50;;
57846;SDS011;43675;50.030;21.952;2023-06-22T12:22:45;25.50;;;23.30;;
57846;SDS011;43675;50.030;21.952;2023-06-22T12:25:11;24.60;;;22.70;;
57846;SDS011;43675;50.030;21.952;2023-06-22T12:27:38;24.80;;;22.90;;
57846;SDS011;43675;50.030;21.952;2023-06-22T12:30:05;24.60;;;22.50;;
57846;SDS011;43675;50.030;21.952;2023-06-22T12:32:31;25.00;;;22.80;;
57846;SDS011;43675;50.030;21.952;2023-06-22T12:34:58;26.10;;;23.90;;
57846;SDS011;43675;50.030;21.952;2023-06-22T12:37:24;45.30;;;24.50;;
57846;SDS011;43675;50.030;21.952;2023-06-22T12:39:51;25.90;;;23.60;;
57846;SDS011;43675;50.030;21.952;2023-06-22T12:42:18;26.00;;;23.30;;
57846;SDS011;43675;50.030;21.952;2023-06-22T12:44:44;49.50;;;44.20;;
57846;SDS011;43675;50.030;21.952;2023-06-22T12:47:11;78.80;;;71.00;;
57846;SDS011;43675;50.030;21.952;2023-06-22T12:49:37;101.50;;;90.50;;
57846;SDS011;43675;50.030;21.952;2023-06-22T12:52:08;87.00;;;78.70;;
57846;SDS011;43675;50.030;21.952;2023-06-22T12:54:35;79.20;;;71.30;;
57846;SDS011;43675;50.030;21.952;2023-06-22T12:57:02;71.50;;;64.10;;
57846;SDS011;43675;50.030;21.952;2023-06-22T12:59:28;74.60;;;67.20;;
57846;SDS011;43675;50.030;21.952;2023-06-22T13:01:55;75.80;;;68.30;;
57846;SDS011;43675;50.030;21.952;2023-06-22T13:04:21;73.40;;;66.60;;
57846;SDS011;43675;50.030;21.952;2023-06-22T13:06:48;73.40;;;66.60;;
57846;SDS011;43675;50.030;21.952;2023-06-22T13:09:15;93.70;;;85.60;;
57846;SDS011;43675;50.030;21.952;2023-06-22T13:11:42;101.60;;;93.00;;
57846;SDS011;43675;50.030;21.952;2023-06-22T13:14:09;86.00;;;78.80;;
57846;SDS011;43675;50.030;21.952;2023-06-22T13:16:35;41.40;;;37.90;;
57846;SDS011;43675;50.030;21.952;2023-06-22T13:19:02;39.20;;;35.80;;
57846;SDS011;43675;50.030;21.952;2023-06-22T13:21:30;39.70;;;36.30;;
57846;SDS011;43675;50.030;21.952;2023-06-22T13:23:57;38.70;;;35.50;;
57846;SDS011;43675;50.030;21.952;2023-06-22T13:26:24;35.90;;;33.00;;
57846;SDS011;43675;50.030;21.952;2023-06-22T13:28:50;38.90;;;35.60;;
57846;SDS011;43675;50.030;21.952;2023-06-22T13:31:17;39.10;;;35.80;;
57846;SDS011;43675;50.030;21.952;2023-06-22T13:33:44;39.20;;;35.90;;
57846;SDS011;43675;50.030;21.952;2023-06-22T13:36:10;38.60;;;35.20;;
57846;SDS011;43675;50.030;21.952;2023-06-22T13:38:37;37.00;;;33.70;;
57846;SDS011;43675;50.030;21.952;2023-06-22T13:41:04;35.10;;;32.20;;
57846;SDS011;43675;50.030;21.952;2023-06-22T13:43:31;34.40;;;31.60;;
57846;SDS011;43675;50.030;21.952;2023-06-22T13:45:58;34.50;;;31.70;;
57846;SDS011;43675;50.030;21.952;2023-06-22T13:48:24;32.00;;;29.40;;
57846;SDS011;43675;50.030;21.952;2023-06-22T13:50:51;31.00;;;28.70;;
57846;SDS011;43675;50.030;21.952;2023-06-22T13:53:18;30.20;;;27.80;;
57846;SDS011;43675;50.030;21.952;2023-06-22T13:55:45;27.70;;;25.50;;
57846;SDS011;43675;50.030;21.952;2023-06-22T13:58:11;25.00;;;23.10;;
57846;SDS011;43675;50.030;21.952;2023-06-22T14:00:38;27.30;;;24.90;;
57846;SDS011;43675;50.030;21.952;2023-06-22T14:03:05;26.50;;;24.20;;
57846;SDS011;43675;50.030;21.952;2023-06-22T14:05:31;24.30;;;22.50;;
57846;SDS011;43675;50.030;21.952;2023-06-22T14:07:58;24.70;;;22.70;;
57846;SDS011;43675;50.030;21.952;2023-06-22T14:10:24;22.90;;;21.10;;
57846;SDS011;43675;50.030;21.952;2023-06-22T14:12:51;23.10;;;21.30;;